気象予報士の航空気象 東北地方の強風

*All archives   *Admin

スポンサーサイト

上記の広告は1ヶ月以上更新のないブログに表示されています。
新しい記事を書く事で広告が消せます。
--:--  |  スポンサー広告  |  EDIT  |  Top↑

2010.01.23 (Sat)

東北地方の強風

 22日、仙台では強風が吹き荒れ、東北の各地で電車の運行が遅れたようです。


下記に仙台空港の時系列のMetarを列挙。


気温は低く、乾燥していて、この強風です。


電車や航空機への影響、さらに考えなくてはいけないのが、火災への注意ですね。


 明日は、気象予報士の試験です。


勉強ばかりではなく、常に気象に関するニュースを見て考えることも必要ですよ。



RJSS

220000Z 29017G29KT 250V330 9999 FEW020 02/M11 Q1014

220100Z 29018G29KT 260V340 9999 FEW020 03/M11 Q1014

220137Z 29020G39KT 250V310 9999 FEW020 04/M12 Q1014 RMK 1CU020 A2994

220141Z 28030KT 9999 FEW020 03/M12 Q1014 RMK 1CU020 A2994

220200Z 28024G36KT 9999 FEW020 04/M11 Q1013

220300Z 29024G36KT 9999 FEW020 04/M11 Q1012

220400Z 27024G34KT 9999 FEW020 SCT/// 04/M10 Q1013

220418Z 29012KT 260V330 9999 FEW020 BKN/// 04/M11 Q1012 RMK 1CU020 A2991

220433Z 28015G30KT 250V310 9999 FEW020 BKN/// 04/M11 Q1012 RMK 1CU020 A2991

220500Z 28014G29KT 240V330 9999 FEW020 BKN/// 04/M11 Q1013

220600Z 29018G28KT 240V330 9999 FEW020 BKN/// 04/M11 Q1013

220700Z 27012KT 9999 FEW020 SCT/// 03/M09 Q1013

220800Z 25005KT 9999 FEW020 01/M08 Q1014

220900Z 24006KT 9999 FEW020 00/M06 Q1014

221000Z VRB02KT 9999 FEW020 M00/M06 Q1014

221100Z VRB02KT 9999 FEW020 M01/M06 Q1013

221200Z 33004KT 9999 FEW020 M02/M06 Q1013



ブログランキングに参加しています。
にほんブログ村 環境ブログ 天気・気象学へ
にほんブログ村
応援クリックをおねがします。


以下、アフィリエイトサイトです。




スポンサーサイト
21:09  |  気象・天気  |  TB(0)  |  CM(2)  |  EDIT  |  Top↑

★相互リンクのお願い

こんにちは。
ディスパッチャーのしんのすけと申します。
航空業界で働きながら気象と毎日戦っています。
よかったら、相互リンクしていただけないでしょうか
よろしくおねがいします。
http://wxdisp.blog113.fc2.com/
しんのすけ |  2010年01月24日(日) 17:02 | URL 【コメント編集】

★こちらこそお願いします。

 さまざまな情報を一元に管理されていいサイトですね。
活用させていただきます。
瑞翔 |  2010年01月24日(日) 20:40 | URL 【コメント編集】

コメントを投稿する


 管理者だけに表示  (非公開コメント投稿可能)

▲PageTop

この記事のトラックバックURL

→http://weathereucalyptus.blog115.fc2.com/tb.php/369-ebcf4977
この記事にトラックバックする(FC2ブログユーザー)

この記事へのトラックバック

▲PageTop

 | BLOGTOP | 
上記広告は1ヶ月以上更新のないブログに表示されています。新しい記事を書くことで広告を消せます。